createdAt,value
2023-02-21T00:03:10.241Z,75.41
2023-02-21T00:06:51.216Z,75.69
2023-02-21T00:10:51.597Z,75.63
2023-02-21T00:14:32.726Z,75.38
2023-02-21T00:18:16.891Z,75.21
2023-02-21T00:21:58.918Z,75.30
2023-02-21T00:25:41.168Z,75.68
2023-02-21T00:29:42.949Z,75.65
2023-02-21T00:33:46.071Z,75.97
2023-02-21T00:37:48.154Z,76.12
2023-02-21T00:41:49.981Z,76.43
2023-02-21T00:45:51.454Z,76.55
2023-02-21T00:49:51.239Z,76.69
2023-02-21T00:53:32.262Z,77.03
2023-02-21T00:57:14.073Z,77.03
2023-02-21T01:00:55.696Z,77.22
2023-02-21T01:04:39.027Z,77.04
2023-02-21T01:08:22.335Z,77.10
2023-02-21T01:12:03.693Z,77.08
2023-02-21T01:15:45.479Z,77.42
2023-02-21T01:19:46.799Z,77.73
2023-02-21T01:23:27.540Z,78.60
2023-02-21T01:27:27.690Z,78.96
2023-02-21T01:31:09.131Z,79.31
2023-02-21T01:34:50.372Z,79.77
2023-02-21T01:38:52.504Z,80.44
2023-02-21T01:42:33.276Z,81.16
2023-02-21T01:46:15.529Z,82.21
2023-02-21T01:49:59.820Z,82.43
2023-02-21T01:54:02.041Z,82.48
2023-02-21T01:58:04.763Z,82.69
2023-02-21T02:02:10.818Z,82.76
2023-02-21T02:05:52.274Z,82.77
2023-02-21T02:09:38.803Z,82.81
2023-02-21T02:13:40.861Z,83.00
2023-02-21T02:17:16.734Z,83.59
2023-02-21T02:20:59.336Z,84.11
2023-02-21T02:25:05.384Z,84.55
2023-02-21T02:29:03.411Z,85.50
2023-02-21T02:33:22.817Z,85.68
2023-02-21T02:37:43.153Z,85.87
2023-02-21T02:41:42.633Z,86.40
2023-02-21T02:45:36.985Z,86.92
2023-02-21T02:49:08.752Z,86.97
2023-02-21T02:52:39.458Z,87.40
2023-02-21T02:56:36.296Z,87.56
2023-02-21T03:00:18.719Z,88.01
2023-02-21T03:04:33.561Z,88.47
2023-02-21T03:08:15.026Z,88.54
2023-02-21T03:12:14.215Z,88.76
2023-02-21T03:16:03.952Z,89.28
2023-02-21T03:19:47.920Z,89.55
2023-02-21T03:23:17.370Z,89.44
2023-02-21T03:27:09.415Z,89.55
2023-02-21T03:30:51.170Z,89.80
2023-02-21T03:34:24.692Z,90.39
2023-02-21T03:38:02.229Z,90.44
2023-02-21T03:41:59.667Z,90.63
2023-02-21T03:45:42.328Z,90.89
2023-02-21T03:49:32.549Z,90.92
2023-02-21T03:52:55.359Z,91.16
2023-02-21T03:56:51.705Z,91.07
2023-02-21T04:00:21.078Z,91.14
2023-02-21T04:03:59.077Z,91.14
2023-02-21T04:07:55.600Z,91.17
2023-02-21T04:11:22.311Z,91.42
2023-02-21T04:15:16.753Z,91.52
2023-02-21T04:18:40.028Z,91.24
2023-02-21T04:22:17.391Z,91.25
2023-02-21T04:26:14.109Z,91.11
2023-02-21T04:29:41.654Z,91.07
2023-02-21T04:33:19.394Z,91.26
2023-02-21T04:37:15.922Z,91.14
2023-02-21T04:40:40.616Z,91.07
2023-02-21T04:44:40.257Z,91.20
2023-02-21T04:48:28.161Z,91.52
2023-02-21T04:52:10.380Z,91.72
2023-02-21T04:55:53.864Z,92.01
2023-02-21T04:59:35.084Z,92.21
2023-02-21T05:03:17.603Z,92.56
2023-02-21T05:06:42.038Z,92.85
2023-02-21T05:10:45.254Z,92.84
2023-02-21T05:14:07.755Z,93.07
2023-02-21T05:18:06.587Z,93.38
2023-02-21T05:21:29.688Z,93.25
2023-02-21T05:25:19.995Z,93.43
2023-02-21T05:28:46.844Z,93.51
2023-02-21T05:32:25.736Z,93.60
2023-02-21T05:36:24.729Z,93.69
2023-02-21T05:39:48.351Z,93.49
2023-02-21T05:43:30.938Z,93.20
2023-02-21T05:47:04.454Z,93.17
2023-02-21T05:50:59.459Z,93.07
2023-02-21T05:54:22.823Z,92.92
2023-02-21T05:57:59.366Z,92.83
2023-02-21T06:01:37.564Z,92.78
2023-02-21T06:05:35.022Z,92.47
2023-02-21T06:09:18.718Z,92.51
2023-02-21T06:13:02.395Z,92.46
2023-02-21T06:16:47.766Z,92.28
2023-02-21T06:20:14.885Z,92.12
2023-02-21T06:23:49.014Z,91.84
2023-02-21T06:27:45.939Z,91.46
2023-02-21T06:31:28.480Z,91.28
2023-02-21T06:34:56.226Z,91.19
2023-02-21T06:38:52.741Z,91.41
2023-02-21T06:42:16.745Z,91.54
2023-02-21T06:46:19.666Z,91.75
2023-02-21T06:49:42.466Z,91.69
2023-02-21T06:53:19.601Z,91.51
2023-02-21T06:57:01.046Z,91.23
2023-02-21T07:00:58.548Z,91.51
2023-02-21T07:04:23.314Z,91.33
2023-02-21T07:07:58.431Z,91.32
2023-02-21T07:11:38.193Z,91.11
2023-02-21T07:15:14.159Z,91.26
2023-02-21T07:19:15.137Z,91.11
2023-02-21T07:22:56.813Z,91.48
2023-02-21T07:26:39.457Z,91.55
2023-02-21T07:30:02.669Z,91.84
2023-02-21T07:33:59.625Z,92.19
2023-02-21T07:37:22.816Z,92.94
2023-02-21T07:41:18.941Z,93.20
2023-02-21T07:45:00.463Z,93.33
2023-02-21T07:48:41.339Z,93.43
2023-02-21T07:52:03.533Z,93.31
2023-02-21T07:55:41.056Z,93.65
2023-02-21T07:59:18.861Z,93.59
2023-02-21T08:02:56.493Z,93.66
2023-02-21T08:06:59.174Z,94.25
2023-02-21T08:10:25.139Z,94.19
2023-02-21T08:14:18.149Z,94.37
2023-02-21T08:17:59.027Z,94.56
2023-02-21T08:21:45.874Z,94.65
2023-02-21T08:25:14.303Z,94.87
2023-02-21T08:29:04.969Z,95.34
2023-02-21T08:32:50.809Z,95.11
2023-02-21T08:36:12.923Z,95.69
2023-02-21T08:40:10.203Z,95.66
2023-02-21T08:43:53.938Z,95.82
2023-02-21T08:47:35.755Z,96.00
2023-02-21T08:51:17.592Z,95.95
2023-02-21T08:54:40.537Z,96.24
2023-02-21T08:58:18.124Z,96.39
2023-02-21T09:01:55.860Z,96.50
2023-02-21T09:05:53.643Z,96.48
2023-02-21T09:09:39.030Z,96.10
2023-02-21T09:13:04.555Z,96.27
2023-02-21T09:16:39.171Z,96.76
2023-02-21T09:20:20.926Z,96.22
2023-02-21T09:23:56.726Z,95.86
2023-02-21T09:27:37.725Z,95.83
2023-02-21T09:31:28.304Z,96.15
2023-02-21T09:34:53.635Z,95.97
2023-02-21T09:38:46.907Z,96.38
2023-02-21T09:42:17.669Z,96.28
2023-02-21T09:46:38.476Z,96.22
2023-02-21T09:50:05.984Z,96.29
2023-02-21T09:53:42.702Z,96.12
2023-02-21T09:57:36.291Z,97.05
2023-02-21T10:01:40.384Z,96.67
2023-02-21T10:05:07.748Z,96.91
2023-02-21T10:09:02.186Z,97.39
2023-02-21T10:13:12.378Z,98.07
2023-02-21T10:17:02.105Z,98.63
2023-02-21T10:20:51.921Z,98.92
2023-02-21T10:24:33.880Z,99.15
2023-02-21T10:27:57.460Z,98.84
2023-02-21T10:32:00.117Z,99.29
2023-02-21T10:35:23.748Z,98.91
2023-02-21T10:39:27.626Z,98.12
2023-02-21T10:42:54.774Z,97.57
2023-02-21T10:46:55.177Z,97.37
2023-02-21T10:51:05.693Z,96.61
2023-02-21T10:55:33.176Z,95.16
2023-02-21T10:59:01.765Z,93.83
2023-02-21T11:03:00.278Z,92.19
2023-02-21T11:06:27.935Z,91.49
2023-02-21T11:10:00.637Z,90.54
2023-02-21T11:14:21.624Z,90.08
2023-02-21T11:18:05.502Z,88.45
2023-02-21T11:21:58.656Z,88.04
2023-02-21T11:25:40.825Z,87.46
2023-02-21T11:29:25.264Z,86.81
2023-02-21T11:33:08.594Z,85.61
2023-02-21T11:36:49.969Z,85.41
2023-02-21T11:40:23.968Z,85.77
2023-02-21T11:43:53.536Z,87.14
2023-02-21T11:47:36.521Z,87.69
2023-02-21T11:51:24.857Z,88.12
2023-02-21T11:54:47.958Z,89.25
2023-02-21T11:59:05.184Z,90.31
2023-02-21T12:02:50.533Z,91.43
2023-02-21T12:06:50.047Z,92.79
2023-02-21T12:10:41.797Z,93.02
2023-02-21T12:14:46.068Z,92.96
2023-02-21T12:18:39.642Z,93.08
2023-02-21T12:22:28.626Z,92.89
2023-02-21T12:26:04.680Z,92.92
2023-02-21T12:30:14.224Z,92.80
2023-02-21T12:34:23.208Z,92.56
2023-02-21T12:38:11.990Z,91.97
2023-02-21T12:42:05.261Z,90.53
2023-02-21T12:46:24.080Z,87.71
2023-02-21T12:50:03.677Z,86.93
2023-02-21T12:53:46.385Z,85.92
2023-02-21T12:57:50.467Z,82.67
2023-02-21T13:01:20.862Z,78.32
2023-02-21T13:05:18.693Z,76.47
2023-02-21T13:09:15.200Z,76.60
2023-02-21T13:13:15.113Z,75.00
2023-02-21T13:16:39.235Z,73.04
2023-02-21T13:20:21.501Z,72.57
2023-02-21T13:24:55.047Z,71.52
2023-02-21T13:28:38.149Z,71.79
2023-02-21T13:32:19.730Z,72.40
2023-02-21T13:36:01.045Z,73.87
2023-02-21T13:39:54.199Z,74.03
2023-02-21T13:43:29.171Z,73.52
2023-02-21T13:47:17.333Z,74.20
2023-02-21T13:50:39.580Z,73.12
2023-02-21T13:54:24.824Z,72.86
2023-02-21T13:57:57.484Z,69.72
2023-02-21T14:01:51.865Z,69.46
2023-02-21T14:05:19.640Z,69.14
2023-02-21T14:09:17.120Z,68.19
2023-02-21T14:12:51.146Z,67.44
2023-02-21T14:17:01.505Z,67.88
2023-02-21T14:20:42.318Z,68.13
2023-02-21T14:24:29.361Z,68.44
2023-02-21T14:27:55.082Z,67.19
2023-02-21T14:31:57.485Z,68.33
2023-02-21T14:35:49.654Z,67.17
2023-02-21T14:39:11.787Z,66.70
2023-02-21T14:43:26.301Z,67.14
2023-02-21T14:47:16.950Z,68.13
2023-02-21T14:51:36.342Z,68.92
2023-02-21T14:55:44.689Z,69.72
2023-02-21T14:59:15.731Z,70.24
2023-02-21T15:02:44.303Z,71.12
2023-02-21T15:06:44.863Z,71.43
2023-02-21T15:10:15.663Z,71.67
2023-02-21T15:13:44.790Z,72.19
2023-02-21T15:17:25.745Z,72.62
2023-02-21T15:21:19.828Z,72.97
2023-02-21T15:24:42.684Z,73.45
2023-02-21T15:28:31.725Z,73.53
2023-02-21T15:31:58.465Z,73.62
2023-02-21T15:35:43.049Z,74.01
2023-02-21T15:39:23.927Z,74.35
2023-02-21T15:42:52.765Z,74.60
2023-02-21T15:46:37.999Z,74.94
2023-02-21T15:50:36.662Z,75.22
2023-02-21T15:54:17.730Z,75.45
2023-02-21T15:58:13.087Z,75.41
2023-02-21T16:02:10.508Z,75.56
2023-02-21T16:05:52.071Z,75.72
2023-02-21T16:09:14.188Z,76.01
2023-02-21T16:12:58.342Z,76.29
2023-02-21T16:16:55.602Z,76.26
2023-02-21T16:20:39.954Z,76.30
2023-02-21T16:24:34.900Z,76.38
2023-02-21T16:28:00.314Z,76.59
2023-02-21T16:31:54.254Z,76.67
2023-02-21T16:35:35.144Z,76.90
2023-02-21T16:39:15.898Z,76.58
2023-02-21T16:43:00.390Z,76.48
2023-02-21T16:46:29.804Z,76.09
2023-02-21T16:50:00.681Z,76.32
2023-02-21T16:53:57.319Z,76.72
2023-02-21T16:57:38.615Z,77.01
2023-02-21T17:01:20.657Z,76.54
2023-02-21T17:04:43.596Z,76.02
2023-02-21T17:08:39.980Z,76.23
2023-02-21T17:12:22.680Z,76.42
2023-02-21T17:16:04.260Z,76.70
2023-02-21T17:19:26.410Z,76.38
2023-02-21T17:23:04.642Z,76.08
2023-02-21T17:27:02.252Z,76.09
2023-02-21T17:30:26.160Z,76.07
2023-02-21T17:34:03.175Z,75.97
2023-02-21T17:37:42.147Z,76.05
2023-02-21T17:41:19.757Z,76.17
2023-02-21T17:45:00.826Z,76.29
2023-02-21T17:48:33.411Z,76.39
2023-02-21T17:52:12.410Z,76.36
2023-02-21T17:56:07.451Z,76.16
2023-02-21T17:59:29.501Z,76.04
2023-02-21T18:03:08.486Z,76.30
2023-02-21T18:06:44.951Z,75.05
2023-02-21T18:10:45.779Z,74.49
2023-02-21T18:14:29.636Z,74.64
2023-02-21T18:17:51.053Z,74.71
2023-02-21T18:21:49.458Z,74.39
2023-02-21T18:25:33.536Z,74.26
2023-02-21T18:29:16.491Z,73.77
2023-02-21T18:32:38.670Z,73.90
2023-02-21T18:36:40.126Z,74.03
2023-02-21T18:40:09.020Z,73.46
2023-02-21T18:43:43.192Z,73.22
2023-02-21T18:47:22.020Z,73.36
2023-02-21T18:50:55.800Z,73.93
2023-02-21T18:54:34.116Z,73.84
2023-02-21T18:58:12.297Z,73.81
2023-02-21T19:01:51.705Z,74.07
2023-02-21T19:05:28.212Z,74.07
2023-02-21T19:09:04.419Z,74.04
2023-02-21T19:12:41.995Z,73.90
2023-02-21T19:16:20.267Z,74.33
2023-02-21T19:19:57.511Z,74.49
2023-02-21T19:23:53.755Z,74.57
2023-02-21T19:27:34.709Z,74.87
2023-02-21T19:30:56.681Z,75.13
2023-02-21T19:34:35.334Z,74.75
2023-02-21T19:38:30.879Z,74.67
2023-02-21T19:42:12.060Z,74.45
2023-02-21T19:45:34.893Z,74.68
2023-02-21T19:49:31.168Z,74.53
2023-02-21T19:52:56.396Z,74.30
2023-02-21T19:56:31.136Z,74.35
2023-02-21T20:00:27.540Z,74.31
2023-02-21T20:03:51.301Z,74.18
2023-02-21T20:07:46.830Z,74.84
2023-02-21T20:11:28.240Z,75.05
2023-02-21T20:15:10.211Z,74.95
2023-02-21T20:18:53.817Z,74.22
2023-02-21T20:22:15.973Z,74.79
2023-02-21T20:25:54.022Z,74.71
2023-02-21T20:29:50.319Z,74.34
2023-02-21T20:33:15.225Z,74.51
2023-02-21T20:37:11.366Z,74.73
2023-02-21T20:40:34.765Z,74.88
2023-02-21T20:44:37.309Z,74.51
2023-02-21T20:47:59.786Z,74.50
2023-02-21T20:51:43.349Z,74.13
2023-02-21T20:55:18.812Z,74.52
2023-02-21T20:58:55.109Z,74.31
2023-02-21T21:02:54.316Z,74.50
2023-02-21T21:06:18.475Z,74.74
2023-02-21T21:09:54.583Z,74.58
2023-02-21T21:13:32.221Z,74.72
2023-02-21T21:17:16.674Z,74.64
2023-02-21T21:20:49.778Z,74.65
2023-02-21T21:24:25.182Z,74.68
2023-02-21T21:28:21.905Z,74.68
2023-02-21T21:31:51.877Z,74.81
2023-02-21T21:35:40.540Z,74.87
2023-02-21T21:39:04.215Z,75.07
2023-02-21T21:42:44.177Z,75.28
2023-02-21T21:46:19.916Z,75.51
2023-02-21T21:49:56.722Z,75.61
2023-02-21T21:53:34.232Z,75.40
2023-02-21T21:57:35.330Z,75.42
2023-02-21T22:01:01.126Z,75.42
2023-02-21T22:04:54.122Z,75.65
2023-02-21T22:08:17.204Z,75.66
2023-02-21T22:12:17.884Z,75.88
2023-02-21T22:15:44.234Z,76.08
2023-02-21T22:19:21.385Z,75.66
2023-02-21T22:22:58.625Z,75.45
2023-02-21T22:26:33.705Z,75.65
2023-02-21T22:30:13.737Z,75.88
2023-02-21T22:34:08.364Z,75.97
2023-02-21T22:37:30.824Z,76.05
2023-02-21T22:41:32.749Z,76.02
2023-02-21T22:44:54.980Z,76.02
2023-02-21T22:48:52.637Z,75.92
2023-02-21T22:52:34.763Z,76.27
2023-02-21T22:56:00.062Z,76.42
2023-02-21T22:59:57.021Z,76.31
2023-02-21T23:03:41.870Z,76.42
2023-02-21T23:07:04.115Z,76.44
2023-02-21T23:11:01.229Z,76.40
2023-02-21T23:14:42.083Z,76.29
2023-02-21T23:18:04.166Z,76.02
2023-02-21T23:21:53.060Z,76.06
2023-02-21T23:25:38.156Z,76.20
2023-02-21T23:29:00.457Z,76.30
2023-02-21T23:32:37.909Z,76.55
2023-02-21T23:36:38.606Z,76.75
2023-02-21T23:40:01.965Z,76.74
2023-02-21T23:43:40.039Z,76.87
2023-02-21T23:47:41.333Z,76.79
2023-02-21T23:51:03.649Z,76.88
2023-02-21T23:54:59.855Z,76.85
2023-02-21T23:58:44.593Z,76.81
